Αναφορές METAR Αεροδρομίων

 

LGTS - THESSALONIKI - GREECE
Ενημερώθηκε: 18/07/2018 15:20
Αραιές Νεφώσεις
Αραιές Νεφώσεις
 Ανεμος από ΒΔ
Ανεμος: ΒΔ 33 km/h
Θερμοκρασία: 32°C
Σημ. Δρόσου: 12°C
Υγρασία: 29%
Βαρόμετρο: 1007 hPa
Clouds: Αραιές Νεφώσεις
Visibility: 10 km
Cloud details: Αραιές Νεφώσεις 762 m
2018/07/18 12:20 LGTS 181220Z 32018KT 9999 FEW025 32/12 Q1007 NOSIG
LGLR - LARTISA - GREECE
Ενημερώθηκε: 18/07/2018 14:50
Μερικώς νεφελώδης
Μερικώς νεφελώδης
 Ανεμος από calm
Ανεμος: Απνοια
Θερμοκρασία: 33°C
Σημ. Δρόσου: 13°C
Υγρασία: 30%
Βαρόμετρο: 1007 hPa
Clouds: Μερικώς νεφελώδης
Visibility: 10 km
Cloud details: Αραιές Νεφώσεις 1067 m
Μερικώς νεφελώδης 2438 m
2018/07/18 11:50 LGLR 181150Z 00000KT 9999 FEW035 SCT080 33/13 Q1007 BLU
 
LGKZ - KOZANI - GREECE
Ενημερώθηκε: 18/07/2018 14:50
Μερικώς νεφελώδης
Μερικώς νεφελώδης
 Ανεμος από ΝΝΔ
Ανεμος: ΝΝΔ 15 km/h
Θερμοκρασία: 28°C
Σημ. Δρόσου: 10°C
Υγρασία: 32%
Βαρόμετρο: 1012 hPa
Clouds: Μερικώς νεφελώδης
Visibility: 10 km
Cloud details: Αραιές Νεφώσεις 762 m
Μερικώς νεφελώδης 2134 m
2018/07/18 11:50 LGKZ 181150Z 20008KT 9999 FEW025 SCT070 28/10 Q1012
LGKV - KAVALA - GREECE
Ενημερώθηκε: 18/07/2018 15:20
Αραιές Νεφώσεις
Αραιές Νεφώσεις
 Ανεμος από ΝΝΔ
Ανεμος: ΝΝΔ 19 km/h
Θερμοκρασία: 29°C
Δείκτης θερμότητας: 30°C
Σημ. Δρόσου: 19°C
Υγρασία: 55%
Βαρόμετρο: 1005 hPa
Clouds: Αραιές Νεφώσεις
Visibility: 10 km
Cloud details: Αραιές Νεφώσεις 762 m
2018/07/18 12:20 LGKV 181220Z 21010KT 9999 FEW025TCU 29/19 Q1005
 
LGIO - IOANNINA - GREECE
Ενημερώθηκε: 18/07/2018 14:50
Αραιές Νεφώσεις
Αραιές Νεφώσεις
 Ανεμος από varies
Ανεμος: varies 0 km/h
Θερμοκρασία: 31°C
Δείκτης θερμότητας: 31°C
Σημ. Δρόσου: 16°C
Υγρασία: 40%
Βαρόμετρο: 1009 hPa
Clouds: Αραιές Νεφώσεις
Visibility: 10 km
Cloud details: Αραιές Νεφώσεις 1219 m
2018/07/18 11:50 LGIO 181150Z /////KT 9999 FEW040 31/16 Q1009
LGBL - BOLOS - GREECE
Ενημερώθηκε: 18/07/2018 15:20
Μερικώς νεφελώδης
Μερικώς νεφελώδης
 Ανεμος από ΑΝΑ
Ανεμος: ΑΝΑ 20 km/h
Θερμοκρασία: 32°C
Σημ. Δρόσου: 13°C
Υγρασία: 31%
Βαρόμετρο: 1006 hPa
Clouds: Μερικώς νεφελώδης
Visibility: 10 km
Cloud details: Αραιές Νεφώσεις 914 m
Μερικώς νεφελώδης 2438 m
2018/07/18 12:20 LGBL 181220Z 11011KT 9999 FEW030 SCT080 32/13 Q1006
 
LGMT - MITILINI - GREECE
Ενημερώθηκε: 18/07/2018 15:20
Αραιές Νεφώσεις
Αραιές Νεφώσεις
 Ανεμος από ΒΒΔ
Ανεμος: ΒΒΔ 22 km/h
Θερμοκρασία: 32°C
Δείκτης θερμότητας: 33°C
Σημ. Δρόσου: 18°C
Υγρασία: 43%
Βαρόμετρο: 1005 hPa
Clouds: Αραιές Νεφώσεις
Visibility: 10 km
Cloud details: Αραιές Νεφώσεις 610 m
2018/07/18 12:20 LGMT 181220Z 34012KT 320V020 9999 FEW020 32/18 Q1005
LGAV - ATHENS - GREECE
Ενημερώθηκε: 18/07/2018 15:20
Μερικώς νεφελώδης
Μερικώς νεφελώδης
 Ανεμος από ΒΑ
Ανεμος: ΒΑ 31 km/h
Θερμοκρασία: 31°C
Σημ. Δρόσου: 15°C
Υγρασία: 38%
Βαρόμετρο: 1006 hPa
Clouds: Μερικώς νεφελώδης
Visibility: 10 km
Cloud details: Μερικώς νεφελώδης 1219 m
2018/07/18 12:20 LGAV 181220Z 05017KT 9999 SCT040 31/15 Q1006 NOSIG
 
LGRP - RODOS - GREECE
Ενημερώθηκε: 18/07/2018 15:20
Μερικώς νεφελώδης
Μερικώς νεφελώδης
 Ανεμος από Δ
Ανεμος: Δ 28 km/h
Θερμοκρασία: 28°C
Δείκτης θερμότητας: 31°C
Σημ. Δρόσου: 23°C
Υγρασία: 74%
Βαρόμετρο: 1003 hPa
Clouds: Μερικώς νεφελώδης
Visibility: 9 km
2018/07/18 12:20 LGRP 181220Z 26015KT 9000 NSC 28/23 Q1003 NOSIG
LGIR - HRAKLIO/KRITI - GREECE
Ενημερώθηκε: 18/07/2018 15:20
Αίθριος
Αίθριος
 Ανεμος από ΔΒΔ
Ανεμος: ΔΒΔ 35 km/h
Θερμοκρασία: 30°C
Δείκτης θερμότητας: 33°C
Σημ. Δρόσου: 22°C
Υγρασία: 62%
Βαρόμετρο: 1005 hPa
Περίληψη: Αίθριος
Visibility: greater than 10 km
2018/07/18 12:20 LGIR 181220Z 30019KT CAVOK 30/22 Q1005 NOSIG
 
LGMK - MIKONOS - GREECE
Ενημερώθηκε: 18/07/2018 15:20
Μερικώς νεφελώδης
Μερικώς νεφελώδης
 Ανεμος από ΒΒΔ
Ανεμος: ΒΒΔ 31 km/h, Ριπή: 50 km/h
Θερμοκρασία: 29°C
Δείκτης θερμότητας: 32°C
Σημ. Δρόσου: 22°C
Υγρασία: 66%
Βαρόμετρο: 1006 hPa
Clouds: Μερικώς νεφελώδης
Visibility: 10 km
Cloud details: Μερικώς νεφελώδης 457 m
2018/07/18 12:20 LGMK 181220Z 34017G27KT 9999 SCT015 29/22 Q1006
LGKR - KERKIRA - GREECE
Ενημερώθηκε: 18/07/2018 15:20
Αραιές Νεφώσεις
Αραιές Νεφώσεις
 Ανεμος από ΒΒΔ
Ανεμος: ΒΒΔ 30 km/h
Θερμοκρασία: 31°C
Δείκτης θερμότητας: 38°C
Σημ. Δρόσου: 25°C
Υγρασία: 70%
Βαρόμετρο: 1008 hPa
Clouds: Αραιές Νεφώσεις
Visibility: 10 km
Cloud details: Αραιές Νεφώσεις 762 m
2018/07/18 12:20 LGKR 181220Z 34016KT 9999 FEW025 31/25 Q1008 NOSIG